📊 Raw Sensor Data
Showing records 40576 to 40600 of 84,966 total
| ID | Distance (ft) | Battery V | Battery A | Int Temp (°F) | Int Humid (%) | Ext Temp (°F) | Solar V | RSSI | SNR | Time Stamp |
|---|---|---|---|---|---|---|---|---|---|---|
| 44403 | 15.9 | 3.94 | 0 | 76 | 43 | 75 | 5.10 | -70 | 7 | 06/24/2025 11:30 AM |
| 44402 | 15.9 | 3.94 | 0 | 76 | 43 | 73 | 5.10 | -69 | 7 | 06/24/2025 11:15 AM |
| 44401 | 15.9 | 3.94 | 0 | 75 | 43 | 78 | 5.10 | -71 | 8 | 06/24/2025 11:00 AM |
| 44400 | 16.0 | 3.94 | 0 | 74 | 43 | 76 | 5.10 | -68 | 8 | 06/24/2025 10:45 AM |
| 44399 | 16.0 | 4.06 | 0 | 73 | 43 | 75 | 5.10 | -68 | 7 | 06/24/2025 10:30 AM |
| 44398 | 16.0 | 3.94 | 0 | 72 | 43 | 73 | 5.10 | -70 | 8 | 06/24/2025 10:15 AM |
| 44397 | 16.0 | 3.94 | 0 | 71 | 43 | 74 | 5.10 | -69 | 8 | 06/24/2025 10:00 AM |
| 44396 | 16.0 | 3.94 | 0 | 69 | 43 | 70 | 5.10 | -69 | 8 | 06/24/2025 09:30 AM |
| 44395 | 16.0 | 3.94 | 0 | 68 | 43 | 71 | 5.10 | -69 | 8 | 06/24/2025 09:15 AM |
| 44394 | 16.0 | 3.94 | 0 | 68 | 43 | 70 | 5.10 | -69 | 7 | 06/24/2025 09:00 AM |
| 44393 | 15.9 | 3.94 | 0 | 66 | 43 | 69 | 5.10 | -69 | 8 | 06/24/2025 08:45 AM |
| 44392 | 15.9 | 3.94 | 0 | 65 | 43 | 69 | 5.10 | -69 | 8 | 06/24/2025 08:30 AM |
| 44391 | 15.9 | 3.94 | 0 | 64 | 43 | 68 | 5.10 | -68 | 8 | 06/24/2025 08:15 AM |
| 44390 | 15.9 | 3.94 | 0 | 63 | 43 | 69 | 5.10 | -69 | 8 | 06/24/2025 08:00 AM |
| 44389 | 15.9 | 4.09 | 52 | 62 | 42 | 67 | 4.50 | -71 | 8 | 06/24/2025 07:45 AM |
| 44388 | 15.9 | 4.01 | 38 | 60 | 42 | 67 | 4.50 | -67 | 8 | 06/24/2025 07:30 AM |
| 44387 | 15.9 | 3.95 | 26 | 58 | 41 | 65 | 4.50 | -68 | 7 | 06/24/2025 07:15 AM |
| 44386 | 15.8 | 3.92 | -11 | 56 | 41 | 64 | 4.50 | -68 | 8 | 06/24/2025 07:00 AM |
| 44385 | 15.8 | 3.96 | 8 | 54 | 42 | 61 | 4.50 | -68 | 8 | 06/24/2025 06:45 AM |
| 44384 | 15.7 | 3.95 | 0 | 52 | 42 | 58 | 4.50 | -68 | 8 | 06/24/2025 06:30 AM |
| 44383 | 15.7 | 3.87 | 0 | 51 | 43 | 55 | 4.50 | -68 | 8 | 06/24/2025 06:15 AM |
| 44382 | 15.6 | 3.92 | -7 | 50 | 43 | 52 | 4.60 | -68 | 8 | 06/24/2025 06:00 AM |
| 44381 | 15.7 | 3.92 | -10 | 50 | 43 | 51 | 4.10 | -67 | 8 | 06/24/2025 05:45 AM |
| 44380 | 15.7 | 3.93 | -5 | 50 | 43 | 51 | 0.90 | -67 | 8 | 06/24/2025 05:30 AM |
| 44379 | 15.6 | 3.93 | -5 | 50 | 43 | 52 | 0.10 | -68 | 8 | 06/24/2025 05:15 AM |